createdAt,value
2023-02-21T00:02:29.220Z,4.40
2023-02-21T00:05:20.081Z,4.83
2023-02-21T00:08:11.174Z,5.57
2023-02-21T00:11:02.069Z,5.03
2023-02-21T00:13:55.076Z,5.47
2023-02-21T00:16:45.724Z,6.30
2023-02-21T00:19:37.960Z,5.43
2023-02-21T00:22:28.812Z,4.97
2023-02-21T00:25:19.689Z,5.17
2023-02-21T00:28:10.452Z,5.37
2023-02-21T00:31:01.039Z,5.00
2023-02-21T00:33:54.949Z,4.37
2023-02-21T00:36:46.848Z,4.50
2023-02-21T00:39:37.604Z,4.80
2023-02-21T00:42:28.213Z,4.77
2023-02-21T00:45:18.919Z,4.17
2023-02-21T00:48:09.678Z,4.67
2023-02-21T00:51:00.570Z,4.57
2023-02-21T00:53:52.527Z,4.37
2023-02-21T00:56:43.226Z,4.50
2023-02-21T00:59:34.215Z,4.37
2023-02-21T01:02:25.634Z,5.10
2023-02-21T01:05:16.305Z,5.60
2023-02-21T01:08:07.093Z,5.53
2023-02-21T01:10:59.452Z,5.63
2023-02-21T01:13:50.449Z,5.07
2023-02-21T01:16:41.286Z,5.60
2023-02-21T01:19:31.799Z,5.93
2023-02-21T01:22:23.265Z,5.07
2023-02-21T01:25:14.127Z,4.37
2023-02-21T01:28:06.375Z,5.20
2023-02-21T01:30:56.909Z,5.00
2023-02-21T01:33:47.995Z,4.50
2023-02-21T01:36:38.773Z,5.67
2023-02-21T01:39:30.004Z,5.13
2023-02-21T01:42:20.998Z,5.03
2023-02-21T01:46:08.125Z,4.93
2023-02-21T01:49:00.492Z,5.03
2023-02-21T01:51:57.992Z,4.77
2023-02-21T01:54:53.142Z,5.13
2023-02-21T01:57:44.456Z,5.10
2023-02-21T02:00:35.833Z,5.47
2023-02-21T02:03:28.869Z,5.53
2023-02-21T02:06:24.675Z,5.60
2023-02-21T02:09:15.215Z,4.37
2023-02-21T02:12:23.737Z,5.10
2023-02-21T02:15:19.987Z,5.30
2023-02-21T02:18:36.525Z,4.50
2023-02-21T02:21:51.835Z,4.47
2023-02-21T02:25:01.906Z,4.77
2023-02-21T02:28:01.855Z,4.90
2023-02-21T02:31:21.423Z,6.30
2023-02-21T02:34:44.993Z,5.20
2023-02-21T02:37:25.741Z,5.03
2023-02-21T02:40:06.920Z,7.07
2023-02-21T02:42:56.557Z,4.60
2023-02-21T02:45:35.985Z,5.53
2023-02-21T02:48:15.854Z,5.87
2023-02-21T02:50:51.113Z,5.70
2023-02-21T02:53:29.847Z,5.40
2023-02-21T02:56:05.822Z,5.50
2023-02-21T02:58:43.669Z,5.33
2023-02-21T03:01:47.732Z,5.70
2023-02-21T03:04:44.186Z,5.97
2023-02-21T03:07:23.280Z,7.33
2023-02-21T03:10:13.177Z,6.97
2023-02-21T03:12:51.531Z,6.20
2023-02-21T03:15:30.238Z,5.07
2023-02-21T03:18:10.821Z,4.80
2023-02-21T03:20:46.680Z,5.27
2023-02-21T03:23:21.437Z,5.37
2023-02-21T03:26:00.830Z,5.20
2023-02-21T03:28:35.471Z,4.97
2023-02-21T03:31:12.105Z,5.03
2023-02-21T03:33:45.847Z,5.40
2023-02-21T03:36:19.420Z,5.60
2023-02-21T03:38:52.579Z,6.00
2023-02-21T03:41:27.210Z,6.03
2023-02-21T03:44:00.536Z,5.00
2023-02-21T03:46:34.117Z,5.23
2023-02-21T03:49:07.343Z,5.87
2023-02-21T03:51:40.538Z,4.93
2023-02-21T03:54:13.661Z,5.33
2023-02-21T03:56:48.219Z,5.53
2023-02-21T03:59:21.449Z,5.70
2023-02-21T04:01:54.736Z,5.00
2023-02-21T04:04:28.049Z,5.40
2023-02-21T04:07:01.472Z,5.20
2023-02-21T04:09:34.670Z,5.23
2023-02-21T04:12:09.662Z,5.00
2023-02-21T04:14:43.075Z,5.27
2023-02-21T04:17:17.222Z,4.70
2023-02-21T04:19:50.413Z,5.57
2023-02-21T04:22:23.759Z,5.60
2023-02-21T04:24:56.927Z,5.53
2023-02-21T04:27:31.576Z,6.80
2023-02-21T04:30:05.167Z,6.70
2023-02-21T04:32:38.347Z,5.90
2023-02-21T04:35:11.471Z,5.90
2023-02-21T04:37:45.110Z,6.23
2023-02-21T04:40:18.466Z,6.63
2023-02-21T04:42:52.971Z,5.60
2023-02-21T04:45:26.397Z,5.40
2023-02-21T04:47:59.630Z,6.83
2023-02-21T04:50:32.767Z,6.37
2023-02-21T04:53:06.184Z,6.43
2023-02-21T04:55:39.399Z,6.90
2023-02-21T04:58:14.060Z,5.50
2023-02-21T05:00:47.344Z,6.20
2023-02-21T05:03:20.593Z,6.40
2023-02-21T05:05:53.724Z,5.37
2023-02-21T05:08:28.739Z,5.47
2023-02-21T05:11:02.001Z,4.90
2023-02-21T05:13:36.492Z,4.90
2023-02-21T05:16:09.896Z,5.17
2023-02-21T05:18:43.664Z,5.40
2023-02-21T05:21:18.126Z,5.07
2023-02-21T05:23:56.779Z,5.33
2023-02-21T05:26:35.265Z,5.53
2023-02-21T05:29:09.828Z,5.70
2023-02-21T05:31:42.915Z,5.87
2023-02-21T05:34:17.548Z,6.07
2023-02-21T05:36:50.848Z,6.20
2023-02-21T05:39:24.171Z,6.10
2023-02-21T05:41:57.317Z,5.97
2023-02-21T05:44:31.856Z,8.43
2023-02-21T05:47:07.262Z,6.83
2023-02-21T05:49:43.600Z,7.13
2023-02-21T05:52:19.043Z,12.70
2023-02-21T05:54:52.515Z,10.20
2023-02-21T05:57:25.748Z,8.23
2023-02-21T06:00:00.245Z,8.67
2023-02-21T06:02:33.352Z,8.30
2023-02-21T06:05:07.680Z,7.90
2023-02-21T06:07:40.875Z,6.40
2023-02-21T06:10:14.773Z,5.93
2023-02-21T06:12:48.575Z,6.23
2023-02-21T06:15:23.737Z,4.50
2023-02-21T06:17:56.831Z,8.50
2023-02-21T06:20:45.956Z,6.00
2023-02-21T06:23:19.044Z,7.40
2023-02-21T06:25:52.318Z,8.40
2023-02-21T06:28:30.630Z,7.37
2023-02-21T06:31:07.408Z,7.07
2023-02-21T06:33:40.528Z,6.90
2023-02-21T06:36:17.160Z,6.83
2023-02-21T06:38:55.033Z,5.53
2023-02-21T06:41:30.588Z,5.97
2023-02-21T06:44:03.740Z,5.80
2023-02-21T06:46:39.001Z,6.23
2023-02-21T06:49:13.085Z,6.27
2023-02-21T06:51:46.389Z,6.90
2023-02-21T06:54:20.209Z,7.13
2023-02-21T06:56:53.315Z,6.73
2023-02-21T06:59:26.764Z,5.60
2023-02-21T07:02:02.855Z,6.10
2023-02-21T07:04:36.130Z,5.97
2023-02-21T07:07:09.479Z,6.20
2023-02-21T07:09:42.880Z,6.80
2023-02-21T07:12:16.104Z,6.07
2023-02-21T07:14:49.359Z,4.80
2023-02-21T07:17:24.018Z,5.67
2023-02-21T07:19:57.413Z,7.63
2023-02-21T07:22:30.574Z,7.47
2023-02-21T07:25:04.437Z,7.53
2023-02-21T07:27:37.901Z,7.67
2023-02-21T07:30:12.062Z,7.57
2023-02-21T07:32:46.932Z,8.87
2023-02-21T07:35:20.084Z,7.80
2023-02-21T07:37:57.057Z,8.13
2023-02-21T07:40:30.302Z,7.77
2023-02-21T07:43:03.529Z,7.60
2023-02-21T07:45:36.801Z,7.80
2023-02-21T07:48:14.420Z,8.37
2023-02-21T07:50:47.977Z,10.17
2023-02-21T07:53:21.658Z,8.70
2023-02-21T07:55:54.962Z,8.43
2023-02-21T07:58:28.261Z,9.07
2023-02-21T08:01:02.645Z,7.53
2023-02-21T08:03:38.021Z,7.53
2023-02-21T08:06:12.672Z,8.23
2023-02-21T08:08:46.375Z,8.27
2023-02-21T08:11:19.774Z,10.33
2023-02-21T08:13:53.029Z,8.47
2023-02-21T08:16:26.423Z,8.37
2023-02-21T08:19:01.136Z,8.53
2023-02-21T08:21:34.469Z,9.10
2023-02-21T08:24:10.800Z,8.63
2023-02-21T08:26:58.782Z,8.57
2023-02-21T08:29:32.289Z,8.20
2023-02-21T08:32:06.184Z,8.40
2023-02-21T08:34:40.978Z,8.83
2023-02-21T08:37:17.473Z,8.47
2023-02-21T08:39:52.791Z,9.17
2023-02-21T08:42:26.897Z,8.13
2023-02-21T08:45:00.028Z,8.87
2023-02-21T08:47:36.438Z,9.20
2023-02-21T08:50:11.718Z,8.97
2023-02-21T08:52:47.204Z,9.07
2023-02-21T08:55:21.717Z,10.87
2023-02-21T08:57:55.752Z,8.53
2023-02-21T09:00:29.400Z,8.83
2023-02-21T09:03:02.779Z,8.60
2023-02-21T09:05:37.392Z,7.97
2023-02-21T09:08:11.498Z,8.27
2023-02-21T09:10:47.784Z,8.87
2023-02-21T09:13:21.281Z,7.90
2023-02-21T09:15:54.622Z,7.60
2023-02-21T09:18:29.177Z,9.43
2023-02-21T09:21:03.868Z,6.97
2023-02-21T09:23:37.108Z,8.10
2023-02-21T09:26:10.317Z,7.18
2023-02-21T09:28:43.754Z,7.18
2023-02-21T09:31:17.341Z,8.00
2023-02-21T09:33:51.064Z,7.15
2023-02-21T09:36:27.068Z,6.47
2023-02-21T09:39:00.487Z,6.75
2023-02-21T09:41:34.138Z,7.03
2023-02-21T09:44:08.734Z,6.75
2023-02-21T09:46:46.064Z,6.22
2023-02-21T09:49:24.665Z,6.38
2023-02-21T09:52:01.556Z,6.82
2023-02-21T09:54:38.675Z,5.47
2023-02-21T09:57:16.197Z,4.85
2023-02-21T09:59:50.628Z,4.63
2023-02-21T10:02:41.861Z,5.85
2023-02-21T10:05:24.084Z,5.82
2023-02-21T10:08:07.140Z,5.35
2023-02-21T10:10:48.096Z,4.57
2023-02-21T10:13:37.314Z,3.50
2023-02-21T10:16:18.924Z,3.40
2023-02-21T10:19:05.173Z,3.95
2023-02-21T10:21:43.281Z,3.83
2023-02-21T10:24:21.658Z,3.40
2023-02-21T10:27:03.417Z,3.28
2023-02-21T10:29:43.101Z,3.15
2023-02-21T10:32:16.581Z,3.03
2023-02-21T10:34:50.544Z,3.10
2023-02-21T10:37:39.250Z,3.53
2023-02-21T10:40:30.681Z,3.45
2023-02-21T10:43:17.362Z,3.55
2023-02-21T10:45:59.194Z,4.55
2023-02-21T10:48:36.951Z,3.60
2023-02-21T10:51:13.084Z,3.00
2023-02-21T10:53:48.731Z,3.95
2023-02-21T10:56:29.322Z,4.00
2023-02-21T10:59:05.954Z,3.13
2023-02-21T11:01:45.110Z,3.42
2023-02-21T11:04:28.940Z,3.00
2023-02-21T11:07:07.430Z,2.60
2023-02-21T11:12:31.789Z,2.90
2023-02-21T11:15:19.865Z,3.03
2023-02-21T11:18:07.253Z,3.42
2023-02-21T11:20:41.152Z,4.32
2023-02-21T11:23:24.952Z,3.47
2023-02-21T11:26:09.316Z,3.10
2023-02-21T11:28:46.260Z,3.20
2023-02-21T11:31:27.426Z,3.40
2023-02-21T11:34:04.803Z,2.60
2023-02-21T11:36:41.230Z,2.67
2023-02-21T11:39:19.313Z,2.70
2023-02-21T11:41:54.084Z,2.65
2023-02-21T11:44:34.079Z,2.70
2023-02-21T11:47:15.122Z,3.67
2023-02-21T11:49:55.723Z,3.38
2023-02-21T11:52:36.246Z,3.15
2023-02-21T11:55:16.489Z,2.95
2023-02-21T11:57:58.758Z,3.20
2023-02-21T12:00:43.539Z,3.95
2023-02-21T12:03:55.447Z,3.92
2023-02-21T12:06:40.771Z,2.60
2023-02-21T12:09:20.804Z,2.97
2023-02-21T12:12:11.453Z,3.55
2023-02-21T12:15:07.507Z,3.35
2023-02-21T12:17:59.087Z,4.03
2023-02-21T12:20:54.112Z,2.50
2023-02-21T12:23:39.052Z,2.83
2023-02-21T12:26:30.950Z,2.80
2023-02-21T12:29:17.730Z,2.35
2023-02-21T12:32:23.337Z,2.70
2023-02-21T12:35:42.489Z,2.17
2023-02-21T12:38:28.088Z,2.80
2023-02-21T12:41:12.228Z,2.55
2023-02-21T12:43:56.203Z,2.40
2023-02-21T12:46:35.327Z,3.00
2023-02-21T12:49:17.374Z,2.65
2023-02-21T12:51:59.116Z,2.15
2023-02-21T12:54:42.286Z,2.30
2023-02-21T12:57:19.705Z,2.35
2023-02-21T13:00:08.216Z,3.08
2023-02-21T13:03:05.721Z,2.38
2023-02-21T13:05:44.352Z,3.25
2023-02-21T13:08:24.194Z,2.10
2023-02-21T13:11:08.517Z,1.70
2023-02-21T13:13:41.845Z,2.17
2023-02-21T13:16:18.577Z,1.95
2023-02-21T13:18:59.564Z,1.92
2023-02-21T13:22:21.471Z,2.03
2023-02-21T13:25:07.481Z,2.08
2023-02-21T13:27:54.707Z,1.70
2023-02-21T13:30:40.065Z,1.55
2023-02-21T13:33:28.935Z,1.40
2023-02-21T13:36:02.465Z,1.65
2023-02-21T13:38:36.038Z,1.65
2023-02-21T13:41:16.912Z,1.60
2023-02-21T13:43:53.967Z,1.55
2023-02-21T13:47:08.222Z,1.60
2023-02-21T13:49:54.370Z,1.67
2023-02-21T13:53:04.622Z,1.80
2023-02-21T13:55:38.427Z,1.30
2023-02-21T13:58:37.696Z,1.50
2023-02-21T14:01:46.842Z,1.73
2023-02-21T14:05:05.523Z,2.00
2023-02-21T14:07:45.249Z,1.67
2023-02-21T14:10:27.280Z,1.35
2023-02-21T14:13:04.837Z,1.70
2023-02-21T14:15:46.192Z,1.70
2023-02-21T14:18:27.258Z,1.45
2023-02-21T14:21:03.048Z,1.95
2023-02-21T14:23:49.656Z,2.42
2023-02-21T14:26:43.363Z,2.13
2023-02-21T14:29:46.019Z,1.70
2023-02-21T14:32:34.693Z,1.63
2023-02-21T14:35:26.358Z,1.60
2023-02-21T14:38:02.863Z,1.70
2023-02-21T14:40:47.525Z,1.88
2023-02-21T14:43:39.027Z,1.52
2023-02-21T14:46:34.523Z,1.48
2023-02-21T14:49:54.312Z,1.70
2023-02-21T14:52:47.210Z,1.75
2023-02-21T14:55:36.123Z,1.73
2023-02-21T14:58:43.654Z,2.28
2023-02-21T15:01:36.124Z,1.60
2023-02-21T15:04:20.626Z,1.45
2023-02-21T15:07:05.797Z,1.33
2023-02-21T15:09:39.231Z,1.50
2023-02-21T15:12:17.962Z,1.50
2023-02-21T15:14:53.526Z,1.60
2023-02-21T15:17:27.424Z,1.70
2023-02-21T15:20:14.610Z,1.45
2023-02-21T15:22:55.961Z,1.70
2023-02-21T15:25:29.241Z,1.45
2023-02-21T15:28:08.531Z,1.35
2023-02-21T15:30:43.396Z,1.38
2023-02-21T15:33:19.293Z,1.40
2023-02-21T15:35:57.148Z,1.58
2023-02-21T15:38:33.618Z,1.50
2023-02-21T15:41:11.140Z,1.50
2023-02-21T15:43:50.954Z,1.77
2023-02-21T15:46:28.437Z,1.60
2023-02-21T15:49:04.956Z,1.38
2023-02-21T15:51:41.251Z,1.67
2023-02-21T15:54:28.755Z,1.70
2023-02-21T15:57:17.832Z,1.80
2023-02-21T16:00:18.436Z,2.78
2023-02-21T16:02:51.667Z,2.60
2023-02-21T16:05:28.495Z,2.30
2023-02-21T16:08:06.777Z,2.20
2023-02-21T16:10:41.381Z,2.65
2023-02-21T16:13:15.565Z,2.10
2023-02-21T16:15:48.696Z,2.92
2023-02-21T16:18:21.932Z,3.25
2023-02-21T16:21:03.366Z,2.22
2023-02-21T16:23:46.299Z,2.08
2023-02-21T16:26:28.195Z,2.60
2023-02-21T16:29:03.672Z,1.67
2023-02-21T16:31:39.344Z,2.65
2023-02-21T16:34:14.705Z,2.28
2023-02-21T16:36:48.372Z,3.35
2023-02-21T16:39:22.858Z,2.38
2023-02-21T16:41:55.947Z,2.83
2023-02-21T16:44:29.148Z,2.60
2023-02-21T16:47:02.320Z,2.83
2023-02-21T16:49:36.623Z,3.47
2023-02-21T16:52:12.967Z,4.13
2023-02-21T16:54:47.740Z,4.90
2023-02-21T16:57:20.831Z,4.72
2023-02-21T16:59:54.034Z,4.03
2023-02-21T17:02:27.471Z,4.78
2023-02-21T17:05:00.736Z,4.03
2023-02-21T17:07:34.094Z,3.85
2023-02-21T17:10:09.922Z,4.22
2023-02-21T17:12:43.150Z,6.35
2023-02-21T17:15:16.695Z,7.55
2023-02-21T17:17:53.346Z,7.05
2023-02-21T17:20:27.620Z,6.30
2023-02-21T17:23:01.883Z,5.53
2023-02-21T17:25:36.606Z,6.47
2023-02-21T17:28:09.711Z,5.22
2023-02-21T17:30:43.011Z,5.10
2023-02-21T17:33:16.600Z,4.53
2023-02-21T17:35:50.120Z,4.35
2023-02-21T17:38:23.233Z,3.85
2023-02-21T17:40:57.752Z,3.72
2023-02-21T17:43:30.965Z,3.40
2023-02-21T17:46:05.847Z,3.40
2023-02-21T17:48:39.677Z,3.38
2023-02-21T17:51:21.569Z,3.40
2023-02-21T17:53:55.404Z,3.72
2023-02-21T17:56:30.044Z,3.67
2023-02-21T17:59:03.244Z,3.63
2023-02-21T18:01:36.484Z,3.22
2023-02-21T18:04:10.462Z,2.83
2023-02-21T18:06:44.154Z,2.88
2023-02-21T18:09:17.443Z,3.28
2023-02-21T18:11:53.513Z,3.15
2023-02-21T18:14:30.266Z,3.42
2023-02-21T18:17:03.488Z,4.05
2023-02-21T18:19:37.271Z,3.35
2023-02-21T18:22:10.441Z,3.00
2023-02-21T18:24:43.734Z,3.22
2023-02-21T18:27:18.468Z,3.75
2023-02-21T18:29:55.889Z,4.80
2023-02-21T18:32:29.137Z,3.95
2023-02-21T18:35:02.396Z,4.32
2023-02-21T18:37:36.123Z,4.28
2023-02-21T18:40:11.880Z,6.07
2023-02-21T18:42:47.749Z,4.20
2023-02-21T18:45:21.052Z,5.88
2023-02-21T18:47:54.284Z,5.32
2023-02-21T18:50:27.425Z,6.07
2023-02-21T18:53:02.233Z,7.60
2023-02-21T18:55:35.546Z,6.75
2023-02-21T18:58:10.707Z,6.00
2023-02-21T19:00:43.989Z,6.13
2023-02-21T19:03:17.302Z,6.07
2023-02-21T19:05:52.563Z,5.30
2023-02-21T19:08:26.117Z,5.27
2023-02-21T19:10:59.377Z,5.83
2023-02-21T19:13:33.865Z,7.17
2023-02-21T19:16:07.489Z,6.43
2023-02-21T19:18:40.771Z,4.77
2023-02-21T19:21:14.424Z,6.27
2023-02-21T19:23:47.917Z,6.93
2023-02-21T19:26:21.260Z,7.43
2023-02-21T19:28:55.713Z,8.03
2023-02-21T19:31:29.275Z,5.70
2023-02-21T19:34:02.829Z,7.23
2023-02-21T19:36:38.992Z,8.50
2023-02-21T19:39:12.695Z,10.07
2023-02-21T19:41:46.760Z,10.90
2023-02-21T19:44:21.877Z,12.10
2023-02-21T19:46:55.047Z,12.47
2023-02-21T19:49:28.665Z,15.87
2023-02-21T19:52:02.084Z,17.60
2023-02-21T19:54:35.465Z,18.57
2023-02-21T19:57:08.727Z,15.50
2023-02-21T19:59:43.307Z,12.47
2023-02-21T20:02:16.871Z,14.40
2023-02-21T20:04:50.210Z,13.50
2023-02-21T20:07:23.816Z,12.13
2023-02-21T20:09:57.133Z,17.90
2023-02-21T20:12:30.680Z,14.30
2023-02-21T20:15:07.232Z,11.57
2023-02-21T20:17:40.371Z,10.50
2023-02-21T20:20:13.633Z,11.53
2023-02-21T20:22:46.714Z,9.30
2023-02-21T20:25:20.140Z,9.20
2023-02-21T20:27:53.400Z,8.40
2023-02-21T20:30:27.990Z,7.87
2023-02-21T20:33:01.683Z,7.30
2023-02-21T20:35:34.782Z,7.53
2023-02-21T20:38:09.523Z,7.73
2023-02-21T20:40:42.785Z,7.23
2023-02-21T20:43:15.940Z,7.20
2023-02-21T20:45:50.657Z,7.23
2023-02-21T20:48:25.651Z,7.80
2023-02-21T20:51:00.460Z,7.40
2023-02-21T21:22:22.768Z,7.97
2023-02-21T21:24:57.011Z,7.10
2023-02-21T21:27:30.398Z,7.20
2023-02-21T21:30:04.068Z,6.30
2023-02-21T21:32:37.408Z,6.47
2023-02-21T21:35:11.287Z,6.20
2023-02-21T21:37:46.260Z,7.10
2023-02-21T21:40:24.225Z,6.80
2023-02-21T21:42:59.186Z,7.80
2023-02-21T21:45:44.299Z,9.10
2023-02-21T21:48:18.616Z,8.20
2023-02-21T21:50:51.953Z,8.93
2023-02-21T21:53:26.852Z,8.73
2023-02-21T21:56:04.619Z,8.37
2023-02-21T21:58:37.879Z,9.17
2023-02-21T22:01:11.131Z,9.93
2023-02-21T22:03:44.576Z,9.90
2023-02-21T22:06:17.803Z,9.97
2023-02-21T22:08:55.264Z,9.57
2023-02-21T22:11:28.572Z,7.80
2023-02-21T22:14:01.762Z,6.90
2023-02-21T22:16:39.297Z,8.60
2023-02-21T22:19:13.006Z,8.37
2023-02-21T22:21:46.446Z,8.40
2023-02-21T22:24:21.188Z,9.33
2023-02-21T22:26:56.144Z,9.53
2023-02-21T22:29:29.429Z,9.83
2023-02-21T22:32:02.682Z,9.27
2023-02-21T22:34:36.071Z,9.60
2023-02-21T22:37:10.486Z,9.40
2023-02-21T22:39:45.067Z,8.17
2023-02-21T22:42:18.598Z,8.03
2023-02-21T22:44:52.441Z,7.83
2023-02-21T22:47:25.638Z,7.30
2023-02-21T22:49:59.040Z,7.33
2023-02-21T22:52:32.951Z,8.83
2023-02-21T22:55:08.941Z,8.47
2023-02-21T22:57:43.712Z,10.97
2023-02-21T23:00:21.899Z,10.67
2023-02-21T23:02:55.126Z,9.37
2023-02-21T23:05:29.138Z,8.63
2023-02-21T23:08:02.328Z,8.47
2023-02-21T23:10:40.314Z,10.20
2023-02-21T23:13:18.592Z,9.67
2023-02-21T23:15:55.455Z,12.30
2023-02-21T23:18:29.204Z,10.27
2023-02-21T23:21:05.212Z,10.00
2023-02-21T23:23:38.525Z,11.43
2023-02-21T23:26:19.554Z,11.80
2023-02-21T23:28:53.191Z,11.20
2023-02-21T23:31:26.506Z,10.77
2023-02-21T23:33:59.761Z,11.50
2023-02-21T23:36:33.040Z,11.67
2023-02-21T23:39:09.110Z,11.07
2023-02-21T23:41:49.077Z,10.53
2023-02-21T23:44:22.680Z,11.30
2023-02-21T23:46:55.957Z,10.57
2023-02-21T23:49:30.810Z,10.50
2023-02-21T23:52:04.073Z,10.90
2023-02-21T23:54:38.610Z,10.77
2023-02-21T23:57:14.989Z,10.03
2023-02-21T23:59:48.218Z,10.57
